sensor_id;sensor_type;location;lat;lon;timestamp;temperature;humidity
71436;SHT31;59251;51.326;12.370;2022-10-15T00:02:06;14.52;95.69
71436;SHT31;59251;51.326;12.370;2022-10-15T00:04:32;14.52;95.25
71436;SHT31;59251;51.326;12.370;2022-10-15T00:06:58;14.46;95.62
71436;SHT31;59251;51.326;12.370;2022-10-15T00:09:23;14.56;95.60
71436;SHT31;59251;51.326;12.370;2022-10-15T00:11:49;14.47;95.52
71436;SHT31;59251;51.326;12.370;2022-10-15T00:14:14;14.50;95.39
71436;SHT31;59251;51.326;12.370;2022-10-15T00:16:40;14.45;95.73
71436;SHT31;59251;51.326;12.370;2022-10-15T00:19:05;14.50;95.65
71436;SHT31;59251;51.326;12.370;2022-10-15T00:21:30;14.47;95.96
71436;SHT31;59251;51.326;12.370;2022-10-15T00:23:56;14.50;96.12
71436;SHT31;59251;51.326;12.370;2022-10-15T00:26:24;14.39;96.16
71436;SHT31;59251;51.326;12.370;2022-10-15T00:28:52;14.45;96.06
71436;SHT31;59251;51.326;12.370;2022-10-15T00:31:18;14.45;96.35
71436;SHT31;59251;51.326;12.370;2022-10-15T00:33:50;14.49;96.07
71436;SHT31;59251;51.326;12.370;2022-10-15T00:36:18;14.43;96.39
71436;SHT31;59251;51.326;12.370;2022-10-15T00:38:43;14.52;96.17
71436;SHT31;59251;51.326;12.370;2022-10-15T00:41:27;14.56;95.77
71436;SHT31;59251;51.326;12.370;2022-10-15T00:43:56;14.60;96.02
71436;SHT31;59251;51.326;12.370;2022-10-15T00:46:32;14.53;95.72
71436;SHT31;59251;51.326;12.370;2022-10-15T00:52:16;14.63;95.99
71436;SHT31;59251;51.326;12.370;2022-10-15T00:55:04;14.70;95.56
71436;SHT31;59251;51.326;12.370;2022-10-15T00:57:31;14.59;95.92
71436;SHT31;59251;51.326;12.370;2022-10-15T01:00:00;14.56;96.11
71436;SHT31;59251;51.326;12.370;2022-10-15T01:02:27;14.53;96.44
71436;SHT31;59251;51.326;12.370;2022-10-15T01:04:52;14.64;96.29
71436;SHT31;59251;51.326;12.370;2022-10-15T01:07:19;14.52;97.01
71436;SHT31;59251;51.326;12.370;2022-10-15T01:09:44;14.50;97.36
71436;SHT31;59251;51.326;12.370;2022-10-15T01:12:24;14.50;97.38
71436;SHT31;59251;51.326;12.370;2022-10-15T01:17:37;14.47;97.82
71436;SHT31;59251;51.326;12.370;2022-10-15T01:31:32;14.40;97.93
71436;SHT31;59251;51.326;12.370;2022-10-15T01:37:10;14.43;97.91
71436;SHT31;59251;51.326;12.370;2022-10-15T01:39:41;14.53;97.85
71436;SHT31;59251;51.326;12.370;2022-10-15T01:42:15;14.64;97.15
71436;SHT31;59251;51.326;12.370;2022-10-15T01:44:47;14.63;97.35
71436;SHT31;59251;51.326;12.370;2022-10-15T01:47:20;14.59;96.95
71436;SHT31;59251;51.326;12.370;2022-10-15T01:49:48;14.66;96.49
71436;SHT31;59251;51.326;12.370;2022-10-15T01:52:20;14.60;96.96
71436;SHT31;59251;51.326;12.370;2022-10-15T01:54:48;14.59;97.12
71436;SHT31;59251;51.326;12.370;2022-10-15T01:57:15;14.72;96.63
71436;SHT31;59251;51.326;12.370;2022-10-15T01:59:42;14.59;97.02
71436;SHT31;59251;51.326;12.370;2022-10-15T02:02:08;14.64;96.83
71436;SHT31;59251;51.326;12.370;2022-10-15T02:04:33;14.60;97.25
71436;SHT31;59251;51.326;12.370;2022-10-15T02:09:54;14.73;96.33
71436;SHT31;59251;51.326;12.370;2022-10-15T02:12:49;14.53;97.05
71436;SHT31;59251;51.326;12.370;2022-10-15T02:15:36;14.62;96.96
71436;SHT31;59251;51.326;12.370;2022-10-15T02:18:17;14.60;96.62
71436;SHT31;59251;51.326;12.370;2022-10-15T02:20:57;14.66;96.72
71436;SHT31;59251;51.326;12.370;2022-10-15T02:26:21;14.53;97.17
71436;SHT31;59251;51.326;12.370;2022-10-15T02:28:53;14.52;96.79
71436;SHT31;59251;51.326;12.370;2022-10-15T02:31:22;14.56;96.77
71436;SHT31;59251;51.326;12.370;2022-10-15T02:33:49;14.52;96.97
71436;SHT31;59251;51.326;12.370;2022-10-15T02:36:17;14.52;96.57
71436;SHT31;59251;51.326;12.370;2022-10-15T02:38:43;14.49;97.08
71436;SHT31;59251;51.326;12.370;2022-10-15T02:41:10;14.49;96.92
71436;SHT31;59251;51.326;12.370;2022-10-15T02:43:37;14.53;96.76
71436;SHT31;59251;51.326;12.370;2022-10-15T02:46:04;14.50;96.81
71436;SHT31;59251;51.326;12.370;2022-10-15T02:48:29;14.63;96.46
71436;SHT31;59251;51.326;12.370;2022-10-15T02:50:54;14.64;96.03
71436;SHT31;59251;51.326;12.370;2022-10-15T02:53:20;14.50;96.83
71436;SHT31;59251;51.326;12.370;2022-10-15T02:55:45;14.57;96.82
71436;SHT31;59251;51.326;12.370;2022-10-15T02:58:11;14.63;96.29
71436;SHT31;59251;51.326;12.370;2022-10-15T03:00:37;14.62;96.33
71436;SHT31;59251;51.326;12.370;2022-10-15T03:03:02;14.62;95.81
71436;SHT31;59251;51.326;12.370;2022-10-15T03:05:27;14.52;96.37
71436;SHT31;59251;51.326;12.370;2022-10-15T03:07:53;14.56;96.20
71436;SHT31;59251;51.326;12.370;2022-10-15T03:10:19;14.62;95.76
71436;SHT31;59251;51.326;12.370;2022-10-15T03:12:44;14.62;95.73
71436;SHT31;59251;51.326;12.370;2022-10-15T03:15:09;14.52;96.08
71436;SHT31;59251;51.326;12.370;2022-10-15T03:17:35;14.49;96.40
71436;SHT31;59251;51.326;12.370;2022-10-15T03:20:00;14.59;95.60
71436;SHT31;59251;51.326;12.370;2022-10-15T03:22:26;14.63;95.58
71436;SHT31;59251;51.326;12.370;2022-10-15T03:24:51;14.66;95.53
71436;SHT31;59251;51.326;12.370;2022-10-15T03:27:17;14.60;95.64
71436;SHT31;59251;51.326;12.370;2022-10-15T03:29:42;14.63;95.74
71436;SHT31;59251;51.326;12.370;2022-10-15T03:32:07;14.55;95.69
71436;SHT31;59251;51.326;12.370;2022-10-15T03:34:33;14.53;95.84
71436;SHT31;59251;51.326;12.370;2022-10-15T03:36:58;14.60;95.42
71436;SHT31;59251;51.326;12.370;2022-10-15T03:39:23;14.69;95.19
71436;SHT31;59251;51.326;12.370;2022-10-15T03:41:51;14.55;95.97
71436;SHT31;59251;51.326;12.370;2022-10-15T03:44:17;14.55;95.91
71436;SHT31;59251;51.326;12.370;2022-10-15T03:46:43;14.52;95.55
71436;SHT31;59251;51.326;12.370;2022-10-15T03:49:08;14.62;95.34
71436;SHT31;59251;51.326;12.370;2022-10-15T03:51:33;14.50;95.67
71436;SHT31;59251;51.326;12.370;2022-10-15T03:54:00;14.62;95.58
71436;SHT31;59251;51.326;12.370;2022-10-15T03:56:25;14.60;95.69
71436;SHT31;59251;51.326;12.370;2022-10-15T03:58:51;14.49;96.05
71436;SHT31;59251;51.326;12.370;2022-10-15T04:01:17;14.55;95.62
71436;SHT31;59251;51.326;12.370;2022-10-15T04:03:43;14.62;95.37
71436;SHT31;59251;51.326;12.370;2022-10-15T04:06:09;14.62;95.42
71436;SHT31;59251;51.326;12.370;2022-10-15T04:08:35;14.59;95.66
71436;SHT31;59251;51.326;12.370;2022-10-15T04:11:00;14.52;95.62
71436;SHT31;59251;51.326;12.370;2022-10-15T04:13:27;14.63;95.15
71436;SHT31;59251;51.326;12.370;2022-10-15T04:15:53;14.55;95.43
71436;SHT31;59251;51.326;12.370;2022-10-15T04:18:18;14.57;95.29
71436;SHT31;59251;51.326;12.370;2022-10-15T04:20:49;14.50;95.41
71436;SHT31;59251;51.326;12.370;2022-10-15T04:23:15;14.52;95.23
71436;SHT31;59251;51.326;12.370;2022-10-15T04:25:41;14.40;95.54
71436;SHT31;59251;51.326;12.370;2022-10-15T04:28:07;14.37;95.56
71436;SHT31;59251;51.326;12.370;2022-10-15T04:30:32;14.36;95.78
71436;SHT31;59251;51.326;12.370;2022-10-15T04:32:58;14.33;95.91
71436;SHT31;59251;51.326;12.370;2022-10-15T04:35:23;14.25;96.17
71436;SHT31;59251;51.326;12.370;2022-10-15T04:37:48;14.19;96.28
71436;SHT31;59251;51.326;12.370;2022-10-15T04:40:14;14.16;96.48
71436;SHT31;59251;51.326;12.370;2022-10-15T04:42:40;14.21;96.53
71436;SHT31;59251;51.326;12.370;2022-10-15T04:45:06;14.22;96.57
71436;SHT31;59251;51.326;12.370;2022-10-15T04:47:32;14.26;96.39
71436;SHT31;59251;51.326;12.370;2022-10-15T04:49:57;14.28;96.31
71436;SHT31;59251;51.326;12.370;2022-10-15T04:52:23;14.30;96.23
71436;SHT31;59251;51.326;12.370;2022-10-15T04:54:48;14.30;96.30
71436;SHT31;59251;51.326;12.370;2022-10-15T04:57:14;14.35;96.24
71436;SHT31;59251;51.326;12.370;2022-10-15T04:59:40;14.42;95.72
71436;SHT31;59251;51.326;12.370;2022-10-15T05:02:06;14.39;95.89
71436;SHT31;59251;51.326;12.370;2022-10-15T05:04:31;14.37;96.04
71436;SHT31;59251;51.326;12.370;2022-10-15T05:06:57;14.39;95.87
71436;SHT31;59251;51.326;12.370;2022-10-15T05:09:22;14.32;96.42
71436;SHT31;59251;51.326;12.370;2022-10-15T05:11:48;14.35;96.25
71436;SHT31;59251;51.326;12.370;2022-10-15T05:14:13;14.45;96.08
71436;SHT31;59251;51.326;12.370;2022-10-15T05:16:39;14.57;95.58
71436;SHT31;59251;51.326;12.370;2022-10-15T05:19:06;14.42;95.94
71436;SHT31;59251;51.326;12.370;2022-10-15T05:21:33;14.37;96.20
71436;SHT31;59251;51.326;12.370;2022-10-15T05:23:58;14.46;96.17
71436;SHT31;59251;51.326;12.370;2022-10-15T05:26:25;14.39;96.18
71436;SHT31;59251;51.326;12.370;2022-10-15T05:28:51;14.46;96.10
71436;SHT31;59251;51.326;12.370;2022-10-15T05:31:19;14.50;95.65
71436;SHT31;59251;51.326;12.370;2022-10-15T05:33:46;14.45;95.95
71436;SHT31;59251;51.326;12.370;2022-10-15T05:36:26;14.47;95.99
71436;SHT31;59251;51.326;12.370;2022-10-15T05:38:56;14.40;96.21
71436;SHT31;59251;51.326;12.370;2022-10-15T05:41:23;14.40;96.06
71436;SHT31;59251;51.326;12.370;2022-10-15T05:43:50;14.50;95.98
71436;SHT31;59251;51.326;12.370;2022-10-15T05:46:17;14.47;95.56
71436;SHT31;59251;51.326;12.370;2022-10-15T05:48:42;14.53;95.43
71436;SHT31;59251;51.326;12.370;2022-10-15T05:51:11;14.56;95.57
71436;SHT31;59251;51.326;12.370;2022-10-15T05:53:37;14.53;95.68
71436;SHT31;59251;51.326;12.370;2022-10-15T05:56:03;14.66;95.31
71436;SHT31;59251;51.326;12.370;2022-10-15T05:58:31;14.53;95.57
71436;SHT31;59251;51.326;12.370;2022-10-15T06:00:58;14.50;95.56
71436;SHT31;59251;51.326;12.370;2022-10-15T06:03:25;14.56;94.99
71436;SHT31;59251;51.326;12.370;2022-10-15T06:05:51;14.66;95.06
71436;SHT31;59251;51.326;12.370;2022-10-15T06:08:17;14.73;94.55
71436;SHT31;59251;51.326;12.370;2022-10-15T06:10:43;14.66;94.69
71436;SHT31;59251;51.326;12.370;2022-10-15T06:13:08;14.70;94.54
71436;SHT31;59251;51.326;12.370;2022-10-15T06:15:37;14.60;94.92
71436;SHT31;59251;51.326;12.370;2022-10-15T06:18:02;14.67;94.74
71436;SHT31;59251;51.326;12.370;2022-10-15T06:20:28;14.62;94.72
71436;SHT31;59251;51.326;12.370;2022-10-15T06:22:59;14.79;94.24
71436;SHT31;59251;51.326;12.370;2022-10-15T06:25:25;14.91;93.33
71436;SHT31;59251;51.326;12.370;2022-10-15T06:27:51;14.85;93.78
71436;SHT31;59251;51.326;12.370;2022-10-15T06:30:17;14.80;94.11
71436;SHT31;59251;51.326;12.370;2022-10-15T06:32:47;14.77;94.12
71436;SHT31;59251;51.326;12.370;2022-10-15T06:35:13;14.80;93.90
71436;SHT31;59251;51.326;12.370;2022-10-15T06:37:38;14.80;94.26
71436;SHT31;59251;51.326;12.370;2022-10-15T06:40:04;14.88;93.84
71436;SHT31;59251;51.326;12.370;2022-10-15T06:42:29;14.90;93.87
71436;SHT31;59251;51.326;12.370;2022-10-15T06:44:55;14.94;93.76
71436;SHT31;59251;51.326;12.370;2022-10-15T06:47:20;15.12;93.28
71436;SHT31;59251;51.326;12.370;2022-10-15T06:49:45;15.29;92.57
71436;SHT31;59251;51.326;12.370;2022-10-15T06:52:11;15.17;92.61
71436;SHT31;59251;51.326;12.370;2022-10-15T06:54:36;15.22;92.61
71436;SHT31;59251;51.326;12.370;2022-10-15T06:57:02;15.17;92.96
71436;SHT31;59251;51.326;12.370;2022-10-15T06:59:27;15.17;92.55
71436;SHT31;59251;51.326;12.370;2022-10-15T07:01:53;15.31;91.99
71436;SHT31;59251;51.326;12.370;2022-10-15T07:04:18;15.41;91.83
71436;SHT31;59251;51.326;12.370;2022-10-15T07:06:43;15.22;92.22
71436;SHT31;59251;51.326;12.370;2022-10-15T07:09:09;15.32;92.29
71436;SHT31;59251;51.326;12.370;2022-10-15T07:11:34;15.35;91.86
71436;SHT31;59251;51.326;12.370;2022-10-15T07:13:59;15.28;92.21
71436;SHT31;59251;51.326;12.370;2022-10-15T07:16:25;15.27;92.86
71436;SHT31;59251;51.326;12.370;2022-10-15T07:18:50;15.14;93.25
71436;SHT31;59251;51.326;12.370;2022-10-15T07:21:16;15.25;93.20
71436;SHT31;59251;51.326;12.370;2022-10-15T07:23:41;15.18;93.19
71436;SHT31;59251;51.326;12.370;2022-10-15T07:26:07;15.34;92.97
71436;SHT31;59251;51.326;12.370;2022-10-15T07:28:32;15.46;92.28
71436;SHT31;59251;51.326;12.370;2022-10-15T07:31:03;15.46;91.96
71436;SHT31;59251;51.326;12.370;2022-10-15T07:33:30;15.45;92.14
71436;SHT31;59251;51.326;12.370;2022-10-15T07:36:00;15.43;92.02
71436;SHT31;59251;51.326;12.370;2022-10-15T07:38:25;15.45;92.03
71436;SHT31;59251;51.326;12.370;2022-10-15T07:40:51;15.46;91.97
71436;SHT31;59251;51.326;12.370;2022-10-15T07:43:16;15.56;91.57
71436;SHT31;59251;51.326;12.370;2022-10-15T07:45:46;15.86;90.87
71436;SHT31;59251;51.326;12.370;2022-10-15T07:48:12;16.01;90.48
71436;SHT31;59251;51.326;12.370;2022-10-15T07:50:38;16.17;89.26
71436;SHT31;59251;51.326;12.370;2022-10-15T07:53:03;15.82;90.19
71436;SHT31;59251;51.326;12.370;2022-10-15T07:55:28;15.80;91.08
71436;SHT31;59251;51.326;12.370;2022-10-15T07:57:56;16.00;89.47
71436;SHT31;59251;51.326;12.370;2022-10-15T08:00:22;16.14;89.54
71436;SHT31;59251;51.326;12.370;2022-10-15T08:02:47;15.96;90.32
71436;SHT31;59251;51.326;12.370;2022-10-15T08:05:13;16.41;88.83
71436;SHT31;59251;51.326;12.370;2022-10-15T08:07:38;16.32;89.17
71436;SHT31;59251;51.326;12.370;2022-10-15T08:10:06;16.36;88.82
71436;SHT31;59251;51.326;12.370;2022-10-15T08:12:32;16.42;88.62
71436;SHT31;59251;51.326;12.370;2022-10-15T08:14:57;16.35;89.34
71436;SHT31;59251;51.326;12.370;2022-10-15T08:17:23;16.54;88.52
71436;SHT31;59251;51.326;12.370;2022-10-15T08:19:48;16.32;88.81
71436;SHT31;59251;51.326;12.370;2022-10-15T08:22:14;16.13;89.74
71436;SHT31;59251;51.326;12.370;2022-10-15T08:24:39;15.96;90.67
71436;SHT31;59251;51.326;12.370;2022-10-15T08:27:04;16.42;88.88
71436;SHT31;59251;51.326;12.370;2022-10-15T08:29:30;15.97;90.19
71436;SHT31;59251;51.326;12.370;2022-10-15T08:31:55;16.14;90.26
71436;SHT31;59251;51.326;12.370;2022-10-15T08:34:21;16.44;89.12
71436;SHT31;59251;51.326;12.370;2022-10-15T08:36:46;16.22;89.42
71436;SHT31;59251;51.326;12.370;2022-10-15T08:39:11;16.18;89.70
71436;SHT31;59251;51.326;12.370;2022-10-15T08:41:44;16.69;88.27
71436;SHT31;59251;51.326;12.370;2022-10-15T08:46:45;16.96;86.78
71436;SHT31;59251;51.326;12.370;2022-10-15T08:49:26;17.13;86.95
71436;SHT31;59251;51.326;12.370;2022-10-15T08:51:57;17.03;87.01
71436;SHT31;59251;51.326;12.370;2022-10-15T08:54:28;17.27;86.16
71436;SHT31;59251;51.326;12.370;2022-10-15T08:57:16;17.45;85.55
71436;SHT31;59251;51.326;12.370;2022-10-15T08:59:57;17.88;84.18
71436;SHT31;59251;51.326;12.370;2022-10-15T09:05:49;17.85;83.78
71436;SHT31;59251;51.326;12.370;2022-10-15T09:11:12;18.14;83.13
71436;SHT31;59251;51.326;12.370;2022-10-15T09:13:42;17.81;83.51
71436;SHT31;59251;51.326;12.370;2022-10-15T09:16:21;18.22;82.51
71436;SHT31;59251;51.326;12.370;2022-10-15T09:18:50;18.12;82.12
71436;SHT31;59251;51.326;12.370;2022-10-15T09:21:17;18.54;81.34
71436;SHT31;59251;51.326;12.370;2022-10-15T09:23:43;17.83;83.03
71436;SHT31;59251;51.326;12.370;2022-10-15T09:31:29;18.56;81.08
71436;SHT31;59251;51.326;12.370;2022-10-15T09:34:10;18.60;80.50
71436;SHT31;59251;51.326;12.370;2022-10-15T09:36:40;18.71;79.94
71436;SHT31;59251;51.326;12.370;2022-10-15T09:39:52;18.63;80.16
71436;SHT31;59251;51.326;12.370;2022-10-15T09:42:29;18.34;81.29
71436;SHT31;59251;51.326;12.370;2022-10-15T09:44:58;18.72;79.56
71436;SHT31;59251;51.326;12.370;2022-10-15T09:47:30;18.63;79.84
71436;SHT31;59251;51.326;12.370;2022-10-15T09:49:56;18.43;79.94
71436;SHT31;59251;51.326;12.370;2022-10-15T09:57:36;18.92;79.06
71436;SHT31;59251;51.326;12.370;2022-10-15T10:00:07;18.89;79.16
71436;SHT31;59251;51.326;12.370;2022-10-15T10:02:32;18.91;78.90
71436;SHT31;59251;51.326;12.370;2022-10-15T10:05:18;18.51;80.23
71436;SHT31;59251;51.326;12.370;2022-10-15T10:07:44;18.60;79.80
71436;SHT31;59251;51.326;12.370;2022-10-15T10:10:30;19.01;77.98
71436;SHT31;59251;51.326;12.370;2022-10-15T10:12:57;18.72;77.97
71436;SHT31;59251;51.326;12.370;2022-10-15T10:15:34;18.85;78.55
71436;SHT31;59251;51.326;12.370;2022-10-15T10:18:00;18.61;78.99
71436;SHT31;59251;51.326;12.370;2022-10-15T10:20:30;18.67;78.89
71436;SHT31;59251;51.326;12.370;2022-10-15T10:23:00;18.85;78.45
71436;SHT31;59251;51.326;12.370;2022-10-15T10:27:56;19.12;78.02
71436;SHT31;59251;51.326;12.370;2022-10-15T10:30:22;19.08;78.21
71436;SHT31;59251;51.326;12.370;2022-10-15T10:32:57;19.54;76.34
71436;SHT31;59251;51.326;12.370;2022-10-15T10:35:25;19.09;77.65
71436;SHT31;59251;51.326;12.370;2022-10-15T10:37:53;19.40;76.70
71436;SHT31;59251;51.326;12.370;2022-10-15T10:40:33;19.56;76.06
71436;SHT31;59251;51.326;12.370;2022-10-15T10:48:22;19.18;76.78
71436;SHT31;59251;51.326;12.370;2022-10-15T10:50:48;19.61;75.73
71436;SHT31;59251;51.326;12.370;2022-10-15T10:53:21;19.66;75.57
71436;SHT31;59251;51.326;12.370;2022-10-15T10:55:47;19.13;76.88
71436;SHT31;59251;51.326;12.370;2022-10-15T10:58:19;19.34;76.38
71436;SHT31;59251;51.326;12.370;2022-10-15T11:00:48;19.18;76.73
71436;SHT31;59251;51.326;12.370;2022-10-15T11:03:39;19.33;76.45
71436;SHT31;59251;51.326;12.370;2022-10-15T11:19:32;20.35;73.33
71436;SHT31;59251;51.326;12.370;2022-10-15T11:28:02;19.16;76.48
71436;SHT31;59251;51.326;12.370;2022-10-15T11:30:48;19.33;76.59
71436;SHT31;59251;51.326;12.370;2022-10-15T11:41:22;19.51;75.91
71436;SHT31;59251;51.326;12.370;2022-10-15T11:43:59;19.70;75.23
71436;SHT31;59251;51.326;12.370;2022-10-15T11:49:25;19.18;77.26
71436;SHT31;59251;51.326;12.370;2022-10-15T11:52:15;19.40;76.58
71436;SHT31;59251;51.326;12.370;2022-10-15T11:57:26;19.57;76.23
71436;SHT31;59251;51.326;12.370;2022-10-15T12:00:57;19.53;76.48
71436;SHT31;59251;51.326;12.370;2022-10-15T12:02:52;19.64;75.69
71436;SHT31;59251;51.326;12.370;2022-10-15T12:05:22;19.75;75.35
71436;SHT31;59251;51.326;12.370;2022-10-15T12:07:52;19.87;75.42
71436;SHT31;59251;51.326;12.370;2022-10-15T12:10:31;19.99;75.07
71436;SHT31;59251;51.326;12.370;2022-10-15T12:16:09;19.97;74.62
71436;SHT31;59251;51.326;12.370;2022-10-15T12:18:49;19.92;75.00
71436;SHT31;59251;51.326;12.370;2022-10-15T12:24:03;20.60;72.19
71436;SHT31;59251;51.326;12.370;2022-10-15T12:26:35;21.03;70.97
71436;SHT31;59251;51.326;12.370;2022-10-15T12:29:16;21.66;68.89
71436;SHT31;59251;51.326;12.370;2022-10-15T12:31:47;21.43;68.98
71436;SHT31;59251;51.326;12.370;2022-10-15T12:34:36;22.52;67.50
71436;SHT31;59251;51.326;12.370;2022-10-15T12:37:17;22.41;66.41
71436;SHT31;59251;51.326;12.370;2022-10-15T12:39:43;22.13;67.12
71436;SHT31;59251;51.326;12.370;2022-10-15T12:42:21;23.86;62.59
71436;SHT31;59251;51.326;12.370;2022-10-15T12:44:47;22.71;65.53
71436;SHT31;59251;51.326;12.370;2022-10-15T12:47:13;22.85;65.53
71436;SHT31;59251;51.326;12.370;2022-10-15T13:00:49;22.55;64.55
71436;SHT31;59251;51.326;12.370;2022-10-15T13:03:20;22.58;65.75
71436;SHT31;59251;51.326;12.370;2022-10-15T13:05:46;22.33;66.33
71436;SHT31;59251;51.326;12.370;2022-10-15T13:08:18;21.59;69.10
71436;SHT31;59251;51.326;12.370;2022-10-15T13:10:56;21.62;68.56
71436;SHT31;59251;51.326;12.370;2022-10-15T13:13:32;21.82;67.98
71436;SHT31;59251;51.326;12.370;2022-10-15T13:16:00;22.25;67.01
71436;SHT31;59251;51.326;12.370;2022-10-15T13:18:28;22.72;65.32
71436;SHT31;59251;51.326;12.370;2022-10-15T13:20:54;23.92;63.09
71436;SHT31;59251;51.326;12.370;2022-10-15T13:23:27;22.75;64.90
71436;SHT31;59251;51.326;12.370;2022-10-15T13:28:37;22.13;66.11
71436;SHT31;59251;51.326;12.370;2022-10-15T13:31:05;21.56;68.67
71436;SHT31;59251;51.326;12.370;2022-10-15T13:33:33;20.95;70.30
71436;SHT31;59251;51.326;12.370;2022-10-15T13:36:07;21.62;68.02
71436;SHT31;59251;51.326;12.370;2022-10-15T13:38:34;21.73;67.67
71436;SHT31;59251;51.326;12.370;2022-10-15T13:41:01;20.97;70.34
71436;SHT31;59251;51.326;12.370;2022-10-15T13:43:27;20.76;70.82
71436;SHT31;59251;51.326;12.370;2022-10-15T13:45:55;21.21;69.48
71436;SHT31;59251;51.326;12.370;2022-10-15T13:48:23;21.30;69.47
71436;SHT31;59251;51.326;12.370;2022-10-15T13:50:55;21.07;69.70
71436;SHT31;59251;51.326;12.370;2022-10-15T13:53:31;20.77;70.65
71436;SHT31;59251;51.326;12.370;2022-10-15T13:55:59;21.28;69.05
71436;SHT31;59251;51.326;12.370;2022-10-15T13:58:36;21.28;69.12
71436;SHT31;59251;51.326;12.370;2022-10-15T14:01:19;21.49;67.80
71436;SHT31;59251;51.326;12.370;2022-10-15T14:03:56;21.03;69.07
71436;SHT31;59251;51.326;12.370;2022-10-15T14:06:29;21.18;68.59
71436;SHT31;59251;51.326;12.370;2022-10-15T14:09:16;21.27;68.52
71436;SHT31;59251;51.326;12.370;2022-10-15T14:11:42;21.21;69.00
71436;SHT31;59251;51.326;12.370;2022-10-15T14:17:01;21.39;68.16
71436;SHT31;59251;51.326;12.370;2022-10-15T14:19:28;21.03;69.42
71436;SHT31;59251;51.326;12.370;2022-10-15T14:21:58;20.81;69.68
71436;SHT31;59251;51.326;12.370;2022-10-15T14:24:28;20.62;70.38
71436;SHT31;59251;51.326;12.370;2022-10-15T14:27:01;20.09;72.94
71436;SHT31;59251;51.326;12.370;2022-10-15T14:29:35;20.40;71.91
71436;SHT31;59251;51.326;12.370;2022-10-15T14:32:01;20.53;71.56
71436;SHT31;59251;51.326;12.370;2022-10-15T14:36:58;20.08;72.77
71436;SHT31;59251;51.326;12.370;2022-10-15T14:39:28;20.02;73.46
71436;SHT31;59251;51.326;12.370;2022-10-15T14:41:58;20.53;71.67
71436;SHT31;59251;51.326;12.370;2022-10-15T14:44:24;20.57;71.50
71436;SHT31;59251;51.326;12.370;2022-10-15T14:46:58;19.95;73.64
71436;SHT31;59251;51.326;12.370;2022-10-15T14:49:29;19.71;74.55
71436;SHT31;59251;51.326;12.370;2022-10-15T14:52:09;19.66;75.21
71436;SHT31;59251;51.326;12.370;2022-10-15T14:54:40;19.53;75.29
71436;SHT31;59251;51.326;12.370;2022-10-15T14:57:16;19.46;75.62
71436;SHT31;59251;51.326;12.370;2022-10-15T14:59:42;19.51;75.54
71436;SHT31;59251;51.326;12.370;2022-10-15T15:02:13;19.90;74.59
71436;SHT31;59251;51.326;12.370;2022-10-15T15:04:42;19.57;75.84
71436;SHT31;59251;51.326;12.370;2022-10-15T15:07:13;19.53;75.58
71436;SHT31;59251;51.326;12.370;2022-10-15T15:09:39;19.47;75.89
71436;SHT31;59251;51.326;12.370;2022-10-15T15:12:11;19.50;75.53
71436;SHT31;59251;51.326;12.370;2022-10-15T15:14:38;19.53;75.33
71436;SHT31;59251;51.326;12.370;2022-10-15T15:17:04;19.34;76.45
71436;SHT31;59251;51.326;12.370;2022-10-15T15:19:29;19.54;76.18
71436;SHT31;59251;51.326;12.370;2022-10-15T15:21:54;19.36;75.97
71436;SHT31;59251;51.326;12.370;2022-10-15T15:24:20;19.20;75.80
71436;SHT31;59251;51.326;12.370;2022-10-15T15:26:45;19.24;76.08
71436;SHT31;59251;51.326;12.370;2022-10-15T15:29:11;19.30;75.75
71436;SHT31;59251;51.326;12.370;2022-10-15T15:31:39;19.26;75.09
71436;SHT31;59251;51.326;12.370;2022-10-15T15:34:05;19.18;75.56
71436;SHT31;59251;51.326;12.370;2022-10-15T15:36:30;19.34;74.97
71436;SHT31;59251;51.326;12.370;2022-10-15T15:38:56;18.95;76.13
71436;SHT31;59251;51.326;12.370;2022-10-15T15:41:23;19.05;75.83
71436;SHT31;59251;51.326;12.370;2022-10-15T15:43:50;19.24;75.43
71436;SHT31;59251;51.326;12.370;2022-10-15T15:46:16;19.19;75.46
71436;SHT31;59251;51.326;12.370;2022-10-15T15:48:41;19.15;75.63
71436;SHT31;59251;51.326;12.370;2022-10-15T15:53:41;18.89;76.29
71436;SHT31;59251;51.326;12.370;2022-10-15T15:56:07;18.87;76.56
71436;SHT31;59251;51.326;12.370;2022-10-15T15:58:32;18.96;76.20
71436;SHT31;59251;51.326;12.370;2022-10-15T16:00:57;18.84;76.69
71436;SHT31;59251;51.326;12.370;2022-10-15T16:03:23;18.98;76.36
71436;SHT31;59251;51.326;12.370;2022-10-15T16:05:48;18.83;76.78
71436;SHT31;59251;51.326;12.370;2022-10-15T16:08:15;18.81;76.95
71436;SHT31;59251;51.326;12.370;2022-10-15T16:10:40;18.92;76.59
71436;SHT31;59251;51.326;12.370;2022-10-15T16:13:06;18.87;76.59
71436;SHT31;59251;51.326;12.370;2022-10-15T16:15:33;18.50;77.85
71436;SHT31;59251;51.326;12.370;2022-10-15T16:17:59;18.61;77.81
71436;SHT31;59251;51.326;12.370;2022-10-15T16:20:24;18.32;78.46
71436;SHT31;59251;51.326;12.370;2022-10-15T16:22:50;18.17;79.04
71436;SHT31;59251;51.326;12.370;2022-10-15T16:25:16;18.17;79.19
71436;SHT31;59251;51.326;12.370;2022-10-15T16:27:42;18.12;79.37
71436;SHT31;59251;51.326;12.370;2022-10-15T16:30:10;18.10;79.39
71436;SHT31;59251;51.326;12.370;2022-10-15T16:32:35;18.09;79.50
71436;SHT31;59251;51.326;12.370;2022-10-15T16:35:00;18.05;79.79
71436;SHT31;59251;51.326;12.370;2022-10-15T16:37:26;18.09;79.70
71436;SHT31;59251;51.326;12.370;2022-10-15T16:39:51;18.09;79.87
71436;SHT31;59251;51.326;12.370;2022-10-15T16:42:17;18.23;79.29
71436;SHT31;59251;51.326;12.370;2022-10-15T16:44:42;18.06;79.81
71436;SHT31;59251;51.326;12.370;2022-10-15T16:47:08;18.06;80.05
71436;SHT31;59251;51.326;12.370;2022-10-15T16:49:33;18.08;79.98
71436;SHT31;59251;51.326;12.370;2022-10-15T16:51:59;18.02;80.10
71436;SHT31;59251;51.326;12.370;2022-10-15T16:54:24;18.09;79.82
71436;SHT31;59251;51.326;12.370;2022-10-15T16:56:50;18.02;80.16
71436;SHT31;59251;51.326;12.370;2022-10-15T16:59:17;18.09;79.88
71436;SHT31;59251;51.326;12.370;2022-10-15T17:01:43;18.03;80.08
71436;SHT31;59251;51.326;12.370;2022-10-15T17:04:08;18.05;80.08
71436;SHT31;59251;51.326;12.370;2022-10-15T17:06:34;18.13;79.82
71436;SHT31;59251;51.326;12.370;2022-10-15T17:09:00;18.08;79.89
71436;SHT31;59251;51.326;12.370;2022-10-15T17:11:31;18.09;80.10
71436;SHT31;59251;51.326;12.370;2022-10-15T17:14:01;18.14;79.87
71436;SHT31;59251;51.326;12.370;2022-10-15T17:16:33;18.08;80.15
71436;SHT31;59251;51.326;12.370;2022-10-15T17:18:59;18.12;80.01